Bethesda, United Kingdom
Current Conditions -  °F | °C
As of 11:50 AM on Friday 19 Dec 2014 (Local Time) from EGOV Reporting Station
Few Clouds Few Clouds  
Wind Chill: 39°   Ceiling: Unl
Heat Index: 46°   Visibility: 6mi
Dew Point: 36°   Wind: 22mph
Humidity: 66%   Direction: 260°W
Pressure: 29.97"   Gusts: NA
Location:  53.17°N, 4.08°W
Report Text: EGOV 191150Z 26019KT 9999 FEW030 08/02 Q1015 BLU NOSIG
Loading
Personal Weather Stations






























Interactive Weather Map New forecast layout! Learn more

10-Day Weather Forecast

Advertisements
Track Severe Weather on mobile